createdAt,value
2022-09-23T00:00:12.326Z,19.85
2022-09-23T00:01:12.484Z,19.85
2022-09-23T00:02:12.551Z,19.85
2022-09-23T00:03:12.586Z,19.84
2022-09-23T00:04:12.625Z,19.84
2022-09-23T00:05:12.727Z,19.83
2022-09-23T00:06:12.837Z,19.83
2022-09-23T00:07:12.852Z,19.83
2022-09-23T00:08:12.953Z,19.82
2022-09-23T00:09:13.021Z,19.82
2022-09-23T00:10:13.089Z,19.82
2022-09-23T00:11:13.186Z,19.82
2022-09-23T00:12:13.261Z,19.81
2022-09-23T00:13:13.323Z,19.81
2022-09-23T00:14:13.404Z,19.80
2022-09-23T00:15:13.513Z,19.80
2022-09-23T00:16:13.590Z,19.79
2022-09-23T00:17:13.714Z,19.79
2022-09-23T00:18:13.742Z,19.78
2022-09-23T00:19:13.781Z,19.78
2022-09-23T00:20:13.860Z,19.77
2022-09-23T00:21:13.959Z,19.77
2022-09-23T00:22:14.033Z,19.77
2022-09-23T00:23:14.119Z,19.76
2022-09-23T00:24:14.185Z,19.76
2022-09-23T00:25:14.260Z,19.76
2022-09-23T00:26:14.376Z,19.75
2022-09-23T00:27:14.413Z,19.75
2022-09-23T00:28:14.539Z,19.75
2022-09-23T00:29:14.597Z,19.75
2022-09-23T00:30:14.671Z,19.75
2022-09-23T00:31:14.862Z,19.75
2022-09-23T00:32:14.802Z,19.74
2022-09-23T00:33:14.868Z,19.74
2022-09-23T00:34:14.969Z,19.74
2022-09-23T00:35:15.046Z,19.73
2022-09-23T00:36:15.122Z,19.73
2022-09-23T00:37:15.204Z,19.72
2022-09-23T00:38:15.319Z,19.72
2022-09-23T00:39:15.362Z,19.71
2022-09-23T00:40:15.498Z,19.71
2022-09-23T00:41:15.526Z,19.71
2022-09-23T00:42:15.640Z,19.71
2022-09-23T00:43:15.688Z,19.70
2022-09-23T00:44:15.778Z,19.70
2022-09-23T00:45:15.875Z,19.70
2022-09-23T00:46:16.057Z,19.70
2022-09-23T00:47:16.049Z,19.69
2022-09-23T00:48:16.108Z,19.69
2022-09-23T00:49:16.190Z,19.69
2022-09-23T00:50:16.344Z,19.68
2022-09-23T00:51:16.350Z,19.67
2022-09-23T00:52:16.441Z,19.67
2022-09-23T00:53:16.532Z,19.67
2022-09-23T00:54:16.620Z,19.67
2022-09-23T00:55:16.760Z,19.67
2022-09-23T00:56:16.757Z,19.66
2022-09-23T00:57:16.881Z,19.66
2022-09-23T00:58:16.905Z,19.65
2022-09-23T00:59:16.999Z,19.65
2022-09-23T01:00:17.061Z,19.65
2022-09-23T01:01:17.184Z,19.65
2022-09-23T01:02:17.276Z,19.65
2022-09-23T01:03:17.335Z,19.64
2022-09-23T01:04:17.654Z,19.64
2022-09-23T01:05:17.664Z,19.64
2022-09-23T01:06:18.225Z,19.63
2022-09-23T01:07:17.597Z,19.63
2022-09-23T01:08:17.688Z,19.63
2022-09-23T01:09:17.763Z,19.62
2022-09-23T01:10:17.887Z,19.62
2022-09-23T01:11:17.941Z,19.62
2022-09-23T01:12:18.002Z,19.62
2022-09-23T01:13:18.110Z,19.62
2022-09-23T01:14:18.200Z,19.62
2022-09-23T01:15:18.236Z,19.62
2022-09-23T01:16:18.401Z,19.61
2022-09-23T01:17:18.385Z,19.60
2022-09-23T01:18:18.468Z,19.60
2022-09-23T01:19:18.545Z,19.59
2022-09-23T01:20:18.680Z,19.59
2022-09-23T01:21:18.724Z,19.58
2022-09-23T01:22:18.805Z,19.58
2022-09-23T01:23:18.915Z,19.57
2022-09-23T01:24:18.957Z,19.57
2022-09-23T01:25:19.038Z,19.56
2022-09-23T01:26:19.110Z,19.56
2022-09-23T01:27:19.218Z,19.56
2022-09-23T01:28:19.359Z,19.56
2022-09-23T01:29:19.340Z,19.55
2022-09-23T01:30:19.448Z,19.55
2022-09-23T01:31:19.595Z,19.55
2022-09-23T01:32:19.564Z,19.54
2022-09-23T01:33:19.674Z,19.54
2022-09-23T01:34:19.770Z,19.54
2022-09-23T01:35:19.802Z,19.53
2022-09-23T01:36:19.945Z,19.53
2022-09-23T01:37:20.002Z,19.52
2022-09-23T01:38:20.065Z,19.52
2022-09-23T01:39:20.179Z,19.51
2022-09-23T01:40:20.304Z,19.51
2022-09-23T01:41:20.314Z,19.50
2022-09-23T01:42:20.373Z,19.50
2022-09-23T01:43:20.479Z,19.49
2022-09-23T01:44:20.556Z,19.49
2022-09-23T01:45:20.615Z,19.48
2022-09-23T01:46:20.684Z,19.48
2022-09-23T01:47:20.808Z,19.48
2022-09-23T01:48:20.928Z,19.48
2022-09-23T01:49:20.931Z,19.48
2022-09-23T01:50:21.009Z,19.48
2022-09-23T01:51:21.080Z,19.47
2022-09-23T01:52:21.152Z,19.47
2022-09-23T01:53:21.239Z,19.47
2022-09-23T01:54:21.344Z,19.47
2022-09-23T01:55:21.365Z,19.46
2022-09-23T01:56:21.453Z,19.46
2022-09-23T01:57:21.528Z,19.45
2022-09-23T01:58:21.601Z,19.44
2022-09-23T01:59:21.715Z,19.44
2022-09-23T02:00:21.753Z,19.43
2022-09-23T02:01:21.861Z,19.42
2022-09-23T02:02:22.054Z,19.41
2022-09-23T02:03:21.982Z,19.41
2022-09-23T02:04:22.077Z,19.40
2022-09-23T02:05:22.149Z,19.40
2022-09-23T02:06:22.229Z,19.40
2022-09-23T02:07:22.301Z,19.40
2022-09-23T02:08:22.363Z,19.39
2022-09-23T02:09:22.473Z,19.39
2022-09-23T02:10:22.529Z,19.39
2022-09-23T02:11:22.609Z,19.38
2022-09-23T02:12:22.691Z,19.38
2022-09-23T02:13:22.764Z,19.37
2022-09-23T02:14:22.859Z,19.37
2022-09-23T02:15:22.931Z,19.37
2022-09-23T02:16:23.064Z,19.36
2022-09-23T02:17:23.083Z,19.36
2022-09-23T02:18:23.165Z,19.36
2022-09-23T02:19:23.260Z,19.35
2022-09-23T02:20:23.344Z,19.35
2022-09-23T02:21:23.424Z,19.34
2022-09-23T02:22:23.501Z,19.33
2022-09-23T02:23:23.574Z,19.33
2022-09-23T02:24:23.692Z,19.32
2022-09-23T02:25:23.730Z,19.31
2022-09-23T02:26:23.817Z,19.31
2022-09-23T02:27:23.907Z,19.31
2022-09-23T02:28:24.019Z,19.31
2022-09-23T02:29:24.060Z,19.31
2022-09-23T02:30:24.132Z,19.31
2022-09-23T02:31:24.285Z,19.31
2022-09-23T02:32:24.286Z,19.31
2022-09-23T02:33:24.373Z,19.30
2022-09-23T02:34:24.474Z,19.30
2022-09-23T02:35:24.543Z,19.29
2022-09-23T02:36:24.613Z,19.29
2022-09-23T02:37:24.695Z,19.28
2022-09-23T02:38:24.765Z,19.28
2022-09-23T02:39:24.827Z,19.27
2022-09-23T02:40:24.992Z,19.27
2022-09-23T02:41:24.987Z,19.26
2022-09-23T02:42:25.069Z,19.26
2022-09-23T02:43:25.164Z,19.26
2022-09-23T02:44:25.253Z,19.25
2022-09-23T02:45:25.303Z,19.25
2022-09-23T02:46:25.410Z,19.24
2022-09-23T02:47:25.475Z,19.24
2022-09-23T02:48:25.585Z,19.23
2022-09-23T02:49:25.647Z,19.23
2022-09-23T02:50:25.736Z,19.22
2022-09-23T02:51:25.830Z,19.22
2022-09-23T02:52:25.921Z,19.22
2022-09-23T02:53:25.989Z,19.22
2022-09-23T02:54:26.060Z,19.22
2022-09-23T02:55:26.152Z,19.22
2022-09-23T02:56:26.258Z,19.21
2022-09-23T02:57:26.321Z,19.21
2022-09-23T02:58:26.408Z,19.20
2022-09-23T02:59:26.477Z,19.20
2022-09-23T03:00:26.580Z,19.20
2022-09-23T03:01:26.714Z,19.19
2022-09-23T03:02:26.813Z,19.19
2022-09-23T03:03:26.810Z,19.18
2022-09-23T03:04:26.916Z,19.18
2022-09-23T03:05:26.985Z,19.17
2022-09-23T03:06:27.057Z,19.17
2022-09-23T03:07:27.176Z,19.17
2022-09-23T03:08:27.219Z,19.16
2022-09-23T03:09:27.294Z,19.16
2022-09-23T03:10:27.373Z,19.16
2022-09-23T03:11:27.474Z,19.15
2022-09-23T03:12:27.544Z,19.15
2022-09-23T03:13:29.511Z,19.14
2022-09-23T03:14:27.704Z,19.14
2022-09-23T03:15:27.756Z,19.13
2022-09-23T03:16:28.004Z,19.12
2022-09-23T03:17:27.926Z,19.12
2022-09-23T03:18:27.967Z,19.12
2022-09-23T03:19:28.042Z,19.12
2022-09-23T03:20:28.124Z,19.11
2022-09-23T03:21:28.227Z,19.11
2022-09-23T03:22:28.306Z,19.11
2022-09-23T03:23:28.377Z,19.11
2022-09-23T03:24:28.478Z,19.11
2022-09-23T03:25:28.533Z,19.12
2022-09-23T03:26:28.608Z,19.12
2022-09-23T03:27:28.744Z,19.13
2022-09-23T03:28:28.791Z,19.14
2022-09-23T03:29:28.863Z,19.15
2022-09-23T03:30:28.941Z,19.16
2022-09-23T03:31:29.080Z,19.16
2022-09-23T03:32:29.126Z,19.17
2022-09-23T03:33:29.175Z,19.17
2022-09-23T03:34:29.264Z,19.18
2022-09-23T03:35:29.334Z,19.18
2022-09-23T03:36:29.389Z,19.19
2022-09-23T03:37:29.490Z,19.19
2022-09-23T03:38:29.568Z,19.20
2022-09-23T03:39:29.636Z,19.20
2022-09-23T03:40:29.734Z,19.20
2022-09-23T03:41:29.766Z,19.21
2022-09-23T03:42:29.832Z,19.21
2022-09-23T03:43:30.100Z,19.22
2022-09-23T03:44:29.995Z,19.22
2022-09-23T03:45:30.145Z,19.23
2022-09-23T03:46:30.186Z,19.24
2022-09-23T03:47:30.275Z,19.25
2022-09-23T03:48:30.323Z,19.25
2022-09-23T03:49:30.423Z,19.26
2022-09-23T03:50:30.502Z,19.26
2022-09-23T03:51:30.576Z,19.27
2022-09-23T03:52:30.652Z,19.28
2022-09-23T03:53:30.729Z,19.28
2022-09-23T03:54:30.797Z,19.29
2022-09-23T03:55:30.873Z,19.30
2022-09-23T03:56:30.984Z,19.31
2022-09-23T03:57:31.024Z,19.31
2022-09-23T03:58:31.098Z,19.32
2022-09-23T03:59:31.189Z,19.33
2022-09-23T04:00:31.380Z,19.34
2022-09-23T04:01:31.395Z,19.35
2022-09-23T04:02:31.540Z,19.35
2022-09-23T04:03:31.520Z,19.36
2022-09-23T04:04:31.619Z,19.36
2022-09-23T04:05:31.666Z,19.37
2022-09-23T04:06:31.776Z,19.37
2022-09-23T04:07:31.846Z,19.37
2022-09-23T04:08:31.913Z,19.38
2022-09-23T04:09:32.035Z,19.38
2022-09-23T04:10:32.081Z,19.38
2022-09-23T04:11:32.147Z,19.38
2022-09-23T04:12:32.237Z,19.39
2022-09-23T04:13:32.295Z,19.39
2022-09-23T04:14:32.355Z,19.39
2022-09-23T04:15:32.440Z,19.39
2022-09-23T04:16:32.564Z,19.40
2022-09-23T04:17:32.596Z,19.40
2022-09-23T04:18:32.639Z,19.40
2022-09-23T04:19:32.717Z,19.40
2022-09-23T04:20:32.805Z,19.40
2022-09-23T04:21:32.852Z,19.40
2022-09-23T04:22:32.914Z,19.41
2022-09-23T04:23:32.988Z,19.41
2022-09-23T04:24:33.073Z,19.41
2022-09-23T04:25:33.183Z,19.42
2022-09-23T04:26:33.347Z,19.42
2022-09-23T04:27:37.569Z,19.42
2022-09-23T04:28:33.394Z,19.42
2022-09-23T04:29:33.470Z,19.42
2022-09-23T04:30:33.566Z,19.42
2022-09-23T04:31:33.726Z,19.43
2022-09-23T04:32:33.708Z,19.43
2022-09-23T04:33:33.804Z,19.44
2022-09-23T04:34:33.867Z,19.45
2022-09-23T04:35:39.384Z,19.45
2022-09-23T04:36:34.042Z,19.45
2022-09-23T04:37:34.120Z,19.45
2022-09-23T04:38:34.206Z,19.45
2022-09-23T04:39:34.299Z,19.45
2022-09-23T04:40:34.506Z,19.46
2022-09-23T04:41:34.440Z,19.46
2022-09-23T04:42:34.525Z,19.46
2022-09-23T04:43:34.609Z,19.47
2022-09-23T04:44:34.682Z,19.47
2022-09-23T04:45:35.111Z,19.47
2022-09-23T04:46:35.052Z,19.47
2022-09-23T04:47:35.101Z,19.48
2022-09-23T04:48:35.056Z,19.48
2022-09-23T04:49:35.412Z,19.48
2022-09-23T04:50:35.161Z,19.48
2022-09-23T04:51:35.259Z,19.48
2022-09-23T04:52:35.332Z,19.48
2022-09-23T04:53:35.420Z,19.48
2022-09-23T04:54:35.489Z,19.48
2022-09-23T04:55:35.594Z,19.48
2022-09-23T04:56:35.660Z,19.48
2022-09-23T04:57:35.758Z,19.49
2022-09-23T04:58:35.832Z,19.49
2022-09-23T04:59:35.875Z,19.49
2022-09-23T05:00:36.051Z,19.49
2022-09-23T05:01:36.194Z,19.49
2022-09-23T05:02:36.168Z,19.49
2022-09-23T05:03:36.199Z,19.49
2022-09-23T05:04:36.278Z,19.49
2022-09-23T05:05:36.327Z,19.50
2022-09-23T05:06:36.429Z,19.50
2022-09-23T05:07:36.537Z,19.50
2022-09-23T05:08:36.568Z,19.50
2022-09-23T05:09:36.662Z,19.50
2022-09-23T05:10:36.781Z,19.51
2022-09-23T05:11:36.841Z,19.51
2022-09-23T05:12:36.890Z,19.51
2022-09-23T05:13:37.031Z,19.51
2022-09-23T05:14:37.101Z,19.51
2022-09-23T05:15:37.170Z,19.51
2022-09-23T05:16:37.314Z,19.51
2022-09-23T05:17:37.408Z,19.51
2022-09-23T05:18:37.364Z,19.51
2022-09-23T05:19:37.444Z,19.51
2022-09-23T05:20:37.549Z,19.51
2022-09-23T05:21:37.617Z,19.50
2022-09-23T05:22:37.688Z,19.51
2022-09-23T05:23:37.774Z,19.51
2022-09-23T05:24:37.850Z,19.51
2022-09-23T05:25:38.507Z,19.51
2022-09-23T05:26:38.000Z,19.51
2022-09-23T05:27:38.099Z,19.51
2022-09-23T05:28:38.145Z,19.51
2022-09-23T05:29:38.237Z,19.51
2022-09-23T05:30:38.282Z,19.51
2022-09-23T05:31:38.413Z,19.51
2022-09-23T05:32:38.467Z,19.51
2022-09-23T05:33:38.575Z,19.51
2022-09-23T05:34:38.628Z,19.51
2022-09-23T05:35:38.671Z,19.51
2022-09-23T05:36:39.356Z,19.51
2022-09-23T05:37:38.829Z,19.51
2022-09-23T05:38:38.901Z,19.51
2022-09-23T05:39:39.014Z,19.51
2022-09-23T05:40:39.122Z,19.51
2022-09-23T05:41:39.128Z,19.51
2022-09-23T05:42:39.223Z,19.51
2022-09-23T05:43:39.274Z,19.51
2022-09-23T05:44:39.365Z,19.51
2022-09-23T05:45:39.456Z,19.51
2022-09-23T05:46:39.580Z,19.51
2022-09-23T05:47:39.602Z,19.51
2022-09-23T05:48:39.982Z,19.51
2022-09-23T05:49:58.682Z,19.51
2022-09-23T05:50:39.827Z,19.50
2022-09-23T05:51:39.914Z,19.50
2022-09-23T05:52:40.007Z,19.50
2022-09-23T05:53:40.056Z,19.50
2022-09-23T05:54:40.135Z,19.50
2022-09-23T05:55:40.205Z,19.50
2022-09-23T05:56:40.250Z,19.50
2022-09-23T05:57:40.341Z,19.50
2022-09-23T05:58:40.435Z,19.50
2022-09-23T05:59:40.492Z,19.50
2022-09-23T06:00:40.572Z,19.49
2022-09-23T06:01:40.704Z,19.49
2022-09-23T06:02:40.796Z,19.49
2022-09-23T06:03:40.839Z,19.50
2022-09-23T06:04:40.888Z,19.50
2022-09-23T06:05:40.993Z,19.49
2022-09-23T06:06:41.030Z,19.50
2022-09-23T06:07:41.136Z,19.49
2022-09-23T06:08:41.295Z,19.49
2022-09-23T06:09:41.274Z,19.48
2022-09-23T06:10:41.366Z,19.48
2022-09-23T06:11:41.484Z,19.47
2022-09-23T06:12:41.507Z,19.47
2022-09-23T06:13:41.607Z,19.46
2022-09-23T06:14:41.696Z,19.46
2022-09-23T06:15:41.828Z,19.46
2022-09-23T06:16:41.844Z,19.46
2022-09-23T06:17:41.926Z,19.46
2022-09-23T06:18:42.007Z,19.46
2022-09-23T06:19:42.091Z,19.46
2022-09-23T06:20:42.265Z,19.45
2022-09-23T06:21:42.256Z,19.45
2022-09-23T06:22:42.337Z,19.45
2022-09-23T06:23:42.404Z,19.45
2022-09-23T06:24:42.471Z,19.45
2022-09-23T06:25:42.606Z,19.45
2022-09-23T06:26:42.649Z,19.45
2022-09-23T06:27:42.725Z,19.45
2022-09-23T06:28:42.801Z,19.45
2022-09-23T06:29:42.881Z,19.45
2022-09-23T06:30:42.930Z,19.45
2022-09-23T06:31:43.094Z,19.45
2022-09-23T06:32:43.150Z,19.45
2022-09-23T06:33:43.249Z,19.45
2022-09-23T06:34:50.863Z,19.45
2022-09-23T06:35:51.803Z,19.45
2022-09-23T06:36:45.363Z,19.45
2022-09-23T06:37:43.489Z,19.45
2022-09-23T06:38:43.609Z,19.46
2022-09-23T06:39:43.635Z,19.46
2022-09-23T06:40:43.744Z,19.46
2022-09-23T06:41:43.834Z,19.47
2022-09-23T06:42:43.889Z,19.47
2022-09-23T06:43:43.996Z,19.47
2022-09-23T06:44:44.043Z,19.47
2022-09-23T06:45:44.155Z,19.47
2022-09-23T06:46:44.478Z,19.47
2022-09-23T06:47:44.305Z,19.48
2022-09-23T06:48:46.278Z,19.48
2022-09-23T06:49:44.484Z,19.48
2022-09-23T06:50:44.552Z,19.48
2022-09-23T06:51:44.626Z,19.48
2022-09-23T06:52:44.709Z,19.48
2022-09-23T06:53:44.792Z,19.48
2022-09-23T06:54:44.847Z,19.48
2022-09-23T06:55:44.932Z,19.49
2022-09-23T06:56:44.993Z,19.49
2022-09-23T06:57:45.070Z,19.49
2022-09-23T06:58:45.152Z,19.50
2022-09-23T06:59:45.235Z,19.50
2022-09-23T07:00:45.296Z,19.50
2022-09-23T07:01:45.568Z,19.50
2022-09-23T07:02:45.775Z,19.51
2022-09-23T07:03:45.535Z,19.51
2022-09-23T07:04:45.623Z,19.51
2022-09-23T07:05:45.717Z,19.51
2022-09-23T07:06:45.794Z,19.52
2022-09-23T07:07:45.854Z,19.52
2022-09-23T07:08:45.958Z,19.52
2022-09-23T07:09:45.993Z,19.52
2022-09-23T07:10:46.068Z,19.52
2022-09-23T07:11:46.179Z,19.53
2022-09-23T07:12:46.247Z,19.53
2022-09-23T07:13:46.295Z,19.54
2022-09-23T07:14:46.393Z,19.54
2022-09-23T07:15:46.496Z,19.54
2022-09-23T07:16:46.579Z,19.55
2022-09-23T07:17:46.721Z,19.55
2022-09-23T07:18:46.699Z,19.55
2022-09-23T07:19:46.763Z,19.55
2022-09-23T07:20:46.854Z,19.55
2022-09-23T07:21:46.944Z,19.56
2022-09-23T07:22:47.021Z,19.56
2022-09-23T07:23:47.101Z,19.57
2022-09-23T07:24:47.181Z,19.57
2022-09-23T07:25:47.276Z,19.57
2022-09-23T07:26:47.354Z,19.57
2022-09-23T07:27:47.400Z,19.58
2022-09-23T07:28:47.477Z,19.58
2022-09-23T07:29:48.989Z,19.59
2022-09-23T07:30:57.764Z,19.59
2022-09-23T07:31:47.780Z,19.59
2022-09-23T07:32:49.119Z,19.59
2022-09-23T07:33:47.846Z,19.59
2022-09-23T07:34:47.951Z,19.60
2022-09-23T07:35:47.996Z,19.60
2022-09-23T07:36:48.110Z,19.61
2022-09-23T07:37:48.178Z,19.61
2022-09-23T07:38:48.257Z,19.61
2022-09-23T07:39:48.379Z,19.62
2022-09-23T07:40:48.468Z,19.62
2022-09-23T07:41:48.479Z,19.62
2022-09-23T07:42:48.655Z,19.62
2022-09-23T07:43:48.643Z,19.63
2022-09-23T07:44:48.744Z,19.63
2022-09-23T07:45:48.873Z,19.63
2022-09-23T07:46:48.986Z,19.63
2022-09-23T07:47:48.997Z,19.64
2022-09-23T07:48:49.081Z,19.64
2022-09-23T07:49:49.152Z,19.64
2022-09-23T07:50:49.231Z,19.65
2022-09-23T07:51:49.333Z,19.65
2022-09-23T07:52:49.408Z,19.65
2022-09-23T07:53:49.481Z,19.65
2022-09-23T07:54:49.528Z,19.66
2022-09-23T07:55:49.636Z,19.66
2022-09-23T07:56:49.706Z,19.66
2022-09-23T07:57:49.779Z,19.66
2022-09-23T07:58:49.865Z,19.67
2022-09-23T07:59:49.938Z,19.67
2022-09-23T08:00:50.088Z,19.67
2022-09-23T08:01:50.706Z,19.67
2022-09-23T08:02:53.033Z,19.67
2022-09-23T08:03:50.265Z,19.67
2022-09-23T08:04:50.350Z,19.68
2022-09-23T08:05:50.424Z,19.68
2022-09-23T08:06:50.519Z,19.68
2022-09-23T08:07:50.580Z,19.69
2022-09-23T08:08:53.347Z,19.69
2022-09-23T08:09:50.748Z,19.69
2022-09-23T08:10:50.819Z,19.69
2022-09-23T08:11:50.961Z,19.69
2022-09-23T08:12:51.002Z,19.70
2022-09-23T08:13:51.083Z,19.70
2022-09-23T08:14:51.153Z,19.71
2022-09-23T08:15:55.379Z,19.71
2022-09-23T08:16:51.321Z,19.71
2022-09-23T08:17:51.374Z,19.71
2022-09-23T08:18:51.494Z,19.72
2022-09-23T08:19:51.534Z,19.72
2022-09-23T08:20:51.630Z,19.73
2022-09-23T08:21:51.727Z,19.73
2022-09-23T08:22:51.798Z,19.73
2022-09-23T08:23:51.881Z,19.74
2022-09-23T08:24:52.588Z,19.74
2022-09-23T08:25:52.042Z,19.74
2022-09-23T08:26:52.132Z,19.75
2022-09-23T08:27:52.197Z,19.75
2022-09-23T08:28:52.306Z,19.76
2022-09-23T08:29:52.345Z,19.76
2022-09-23T08:30:52.482Z,19.77
2022-09-23T08:31:52.501Z,19.77
2022-09-23T08:32:52.583Z,19.78
2022-09-23T08:33:52.666Z,19.78
2022-09-23T08:34:52.721Z,19.78
2022-09-23T08:35:52.808Z,19.79
2022-09-23T08:36:52.904Z,19.79
2022-09-23T08:37:52.977Z,19.79
2022-09-23T08:38:53.120Z,19.80
2022-09-23T08:39:53.166Z,19.80
2022-09-23T08:40:53.226Z,19.81
2022-09-23T08:41:58.194Z,19.81
2022-09-23T08:42:53.386Z,19.81
2022-09-23T08:43:53.452Z,19.81
2022-09-23T08:44:53.556Z,19.82
2022-09-23T08:45:53.648Z,19.83
2022-09-23T08:46:53.695Z,19.83
2022-09-23T08:47:53.763Z,19.83
2022-09-23T08:48:53.867Z,19.84
2022-09-23T08:49:53.943Z,19.84
2022-09-23T08:50:54.005Z,19.84
2022-09-23T08:51:54.090Z,19.84
2022-09-23T08:52:54.168Z,19.84
2022-09-23T08:53:54.247Z,19.84
2022-09-23T08:54:55.568Z,19.84
2022-09-23T08:55:54.428Z,19.84
2022-09-23T08:56:54.476Z,19.84
2022-09-23T08:58:23.294Z,19.84
2022-09-23T08:58:54.634Z,19.84
2022-09-23T08:59:54.731Z,19.84
2022-09-23T09:00:54.790Z,19.84
2022-09-23T09:01:54.849Z,19.84
2022-09-23T09:02:54.952Z,19.84
2022-09-23T09:03:55.014Z,19.84
2022-09-23T09:04:55.080Z,19.85
2022-09-23T09:05:55.172Z,19.85
2022-09-23T09:07:03.386Z,19.85
2022-09-23T09:07:55.330Z,19.85
2022-09-23T09:08:55.393Z,19.85
2022-09-23T09:09:55.517Z,19.85
2022-09-23T09:10:55.567Z,19.84
2022-09-23T09:11:55.662Z,19.84
2022-09-23T09:12:55.705Z,19.84
2022-09-23T09:13:55.795Z,19.85
2022-09-23T09:14:55.879Z,19.84
2022-09-23T09:15:56.013Z,19.85
2022-09-23T09:17:00.061Z,19.85
2022-09-23T09:17:56.107Z,19.85
2022-09-23T09:18:56.214Z,19.85
2022-09-23T09:19:56.270Z,19.85
2022-09-23T09:20:56.399Z,19.85
2022-09-23T09:21:56.446Z,19.85
2022-09-23T09:22:56.512Z,19.85
2022-09-23T09:23:56.608Z,19.86
2022-09-23T09:24:56.684Z,19.86
2022-09-23T09:25:56.804Z,19.86
2022-09-23T09:26:56.851Z,19.86
2022-09-23T09:27:56.937Z,19.87
2022-09-23T09:29:06.580Z,19.87
2022-09-23T09:29:57.145Z,19.87
2022-09-23T09:30:57.291Z,19.88
2022-09-23T09:31:57.331Z,19.88
2022-09-23T09:32:57.351Z,19.89
2022-09-23T09:33:57.422Z,19.89
2022-09-23T09:34:57.517Z,19.89
2022-09-23T09:35:57.592Z,19.90
2022-09-23T09:36:57.677Z,19.90
2022-09-23T09:37:57.781Z,19.90
2022-09-23T09:38:57.842Z,19.91
2022-09-23T09:39:57.945Z,19.91
2022-09-23T09:40:58.078Z,19.91
2022-09-23T09:41:58.078Z,19.91
2022-09-23T09:42:58.154Z,19.92
2022-09-23T09:43:58.223Z,19.92
2022-09-23T09:44:58.300Z,19.92
2022-09-23T09:45:58.376Z,19.92
2022-09-23T09:46:58.521Z,19.92
2022-09-23T09:47:58.530Z,19.92
2022-09-23T09:48:58.581Z,19.92
2022-09-23T09:49:58.667Z,19.92
2022-09-23T09:50:58.736Z,19.93
2022-09-23T09:51:58.806Z,19.93
2022-09-23T09:52:58.840Z,19.93
2022-09-23T09:53:58.922Z,19.93
2022-09-23T09:54:59.186Z,19.93
2022-09-23T09:56:04.321Z,19.93
2022-09-23T09:56:59.278Z,19.93
2022-09-23T09:57:59.408Z,19.92
2022-09-23T09:58:59.490Z,19.92
2022-09-23T10:00:01.529Z,19.93
2022-09-23T10:01:00.253Z,19.93
2022-09-23T10:01:59.612Z,19.93
2022-09-23T10:02:59.619Z,19.93
2022-09-23T10:03:59.760Z,19.93
2022-09-23T10:04:59.776Z,19.93
2022-09-23T10:05:59.881Z,19.94
2022-09-23T10:06:59.926Z,19.94
2022-09-23T10:08:00.005Z,19.94
2022-09-23T10:09:00.167Z,19.94
2022-09-23T10:10:10.484Z,19.93
2022-09-23T10:11:00.258Z,19.93
2022-09-23T10:12:00.333Z,19.93
2022-09-23T10:13:00.430Z,19.93
2022-09-23T10:14:00.480Z,19.93
2022-09-23T10:15:00.573Z,19.92
2022-09-23T10:16:00.631Z,19.92
2022-09-23T10:17:00.790Z,19.92
2022-09-23T10:18:00.844Z,19.92
2022-09-23T10:19:00.893Z,19.92
2022-09-23T10:20:01.004Z,19.92
2022-09-23T10:21:01.038Z,19.92
2022-09-23T10:22:01.092Z,19.92
2022-09-23T10:23:01.180Z,19.92
2022-09-23T10:24:01.251Z,19.92
2022-09-23T10:25:01.377Z,19.93
2022-09-23T10:26:01.450Z,19.93
2022-09-23T10:27:01.542Z,19.93
2022-09-23T10:28:05.975Z,19.93
2022-09-23T10:29:01.673Z,19.93
2022-09-23T10:30:01.752Z,19.93
2022-09-23T10:31:01.844Z,19.93
2022-09-23T10:32:01.925Z,19.93
2022-09-23T10:33:02.006Z,19.93
2022-09-23T10:34:02.088Z,19.93
2022-09-23T10:35:02.170Z,19.94
2022-09-23T10:36:02.257Z,19.94
2022-09-23T10:37:02.308Z,19.94
2022-09-23T10:38:02.395Z,19.94
2022-09-23T10:39:02.553Z,19.94
2022-09-23T10:40:02.600Z,19.94
2022-09-23T10:41:02.951Z,19.94
2022-09-23T10:42:02.757Z,19.94
2022-09-23T10:43:02.824Z,19.94
2022-09-23T10:44:02.943Z,19.94
2022-09-23T10:45:03.018Z,19.94
2022-09-23T10:46:03.148Z,19.94
2022-09-23T10:47:03.145Z,19.94
2022-09-23T10:48:03.242Z,19.94
2022-09-23T10:49:03.325Z,19.94
2022-09-23T10:50:03.415Z,19.94
2022-09-23T10:51:03.505Z,19.94
2022-09-23T10:52:03.552Z,19.94
2022-09-23T10:53:03.647Z,19.94
2022-09-23T10:54:03.737Z,19.94
2022-09-23T10:55:03.794Z,19.94
2022-09-23T10:56:03.896Z,19.94
2022-09-23T10:57:03.950Z,19.94
2022-09-23T10:58:04.027Z,19.94
2022-09-23T10:59:04.118Z,19.94
2022-09-23T11:00:04.196Z,19.94
2022-09-23T11:01:04.375Z,19.94
2022-09-23T11:02:04.337Z,19.94
2022-09-23T11:03:04.449Z,19.94
2022-09-23T11:04:04.620Z,19.94
2022-09-23T11:05:04.631Z,19.94
2022-09-23T11:06:04.676Z,19.94
2022-09-23T11:07:04.767Z,19.94
2022-09-23T11:08:04.802Z,19.94
2022-09-23T11:09:04.931Z,19.94
2022-09-23T11:10:05.014Z,19.94
2022-09-23T11:11:05.047Z,19.94
2022-09-23T11:12:05.126Z,19.94
2022-09-23T11:13:05.233Z,19.94
2022-09-23T11:14:05.463Z,19.94
2022-09-23T11:15:05.416Z,19.94
2022-09-23T11:16:05.419Z,19.94
2022-09-23T11:17:05.579Z,19.94
2022-09-23T11:18:05.580Z,19.94
2022-09-23T11:19:05.676Z,19.94
2022-09-23T11:20:05.745Z,19.94
2022-09-23T11:21:05.827Z,19.94
2022-09-23T11:22:05.921Z,19.93
2022-09-23T11:23:06.021Z,19.93
2022-09-23T11:24:06.106Z,19.93
2022-09-23T11:25:06.155Z,19.93
2022-09-23T11:26:06.202Z,19.93
2022-09-23T11:27:06.281Z,19.92
2022-09-23T11:28:06.412Z,19.92
2022-09-23T11:29:06.456Z,19.92
2022-09-23T11:30:06.506Z,19.92
2022-09-23T11:31:06.705Z,19.92
2022-09-23T11:32:06.654Z,19.92
2022-09-23T11:33:06.736Z,19.92
2022-09-23T11:34:06.911Z,19.92
2022-09-23T11:35:06.904Z,19.92
2022-09-23T11:36:07.265Z,19.91
2022-09-23T11:37:07.095Z,19.91
2022-09-23T11:38:07.154Z,19.91
2022-09-23T11:39:07.240Z,19.91
2022-09-23T11:40:07.378Z,19.91
2022-09-23T11:41:07.636Z,19.91
2022-09-23T11:42:07.508Z,19.91
2022-09-23T11:43:07.520Z,19.91
2022-09-23T11:44:07.694Z,19.90
2022-09-23T11:45:07.706Z,19.90
2022-09-23T11:46:07.818Z,19.90
2022-09-23T11:47:07.820Z,19.90
2022-09-23T11:48:08.147Z,19.90
2022-09-23T11:49:08.010Z,19.90
2022-09-23T11:50:08.225Z,19.90
2022-09-23T11:51:08.398Z,19.90
2022-09-23T11:52:08.226Z,19.90
2022-09-23T11:53:08.314Z,19.90
2022-09-23T11:54:08.396Z,19.90
2022-09-23T11:55:18.633Z,19.90
2022-09-23T11:56:08.567Z,19.90
2022-09-23T11:57:08.676Z,19.90
2022-09-23T11:58:21.313Z,19.90
2022-09-23T11:59:09.088Z,19.90
2022-09-23T12:00:08.922Z,19.89
2022-09-23T12:01:08.952Z,19.89
2022-09-23T12:02:18.015Z,19.89
2022-09-23T12:03:09.296Z,19.89
2022-09-23T12:04:18.908Z,19.89
2022-09-23T12:05:09.473Z,19.89
2022-09-23T12:06:09.386Z,19.89
2022-09-23T12:07:09.423Z,19.89
2022-09-23T12:08:09.529Z,19.89
2022-09-23T12:09:09.622Z,19.89
2022-09-23T12:10:09.657Z,19.89
2022-09-23T12:11:09.734Z,19.89
2022-09-23T12:12:09.835Z,19.89
2022-09-23T12:13:10.077Z,19.89
2022-09-23T12:14:09.985Z,19.89
2022-09-23T12:15:10.085Z,19.89
2022-09-23T12:16:10.338Z,19.89
2022-09-23T12:17:10.412Z,19.89
2022-09-23T12:18:10.411Z,19.89
2022-09-23T12:19:10.365Z,19.89
2022-09-23T12:20:10.425Z,19.89
2022-09-23T12:21:18.309Z,19.89
2022-09-23T12:22:10.591Z,19.89
2022-09-23T12:23:10.631Z,19.89
2022-09-23T12:24:10.768Z,19.89
2022-09-23T12:25:10.781Z,19.89
2022-09-23T12:26:10.853Z,19.89
2022-09-23T12:27:10.939Z,19.89
2022-09-23T12:28:11.036Z,19.89
2022-09-23T12:29:11.107Z,19.89
2022-09-23T12:30:11.252Z,19.89
2022-09-23T12:31:11.294Z,19.88
2022-09-23T12:32:11.330Z,19.88
2022-09-23T12:33:11.422Z,19.88
2022-09-23T12:34:11.684Z,19.88
2022-09-23T12:35:11.555Z,19.88
2022-09-23T12:36:11.636Z,19.88
2022-09-23T12:37:12.040Z,19.88
2022-09-23T12:38:11.798Z,19.88
2022-09-23T12:39:11.923Z,19.88
2022-09-23T12:40:12.060Z,19.88
2022-09-23T12:41:12.046Z,19.88
2022-09-23T12:42:12.123Z,19.88
2022-09-23T12:43:12.199Z,19.88
2022-09-23T12:44:12.508Z,19.88
2022-09-23T12:45:12.400Z,19.88
2022-09-23T12:46:12.523Z,19.88
2022-09-23T12:47:12.535Z,19.88
2022-09-23T12:48:12.671Z,19.88
2022-09-23T12:49:12.732Z,19.88
2022-09-23T12:50:17.089Z,19.88
2022-09-23T12:51:12.855Z,19.88
2022-09-23T12:52:12.919Z,19.88
2022-09-23T12:53:13.112Z,19.88